sensor_id;sensor_type;location;lat;lon;timestamp;P1;durP1;ratioP1;P2;durP2;ratioP2
23670;SDS011;12012;51.998;7.614;2023-06-14T00:00:38;6.30;;;3.20;;
23670;SDS011;12012;51.998;7.614;2023-06-14T00:03:06;5.75;;;3.45;;
23670;SDS011;12012;51.998;7.614;2023-06-14T00:05:35;5.40;;;3.28;;
23670;SDS011;12012;51.998;7.614;2023-06-14T00:08:06;7.88;;;3.35;;
23670;SDS011;12012;51.998;7.614;2023-06-14T00:10:33;3.92;;;3.38;;
23670;SDS011;12012;51.998;7.614;2023-06-14T00:13:00;4.70;;;3.38;;
23670;SDS011;12012;51.998;7.614;2023-06-14T00:15:26;3.20;;;2.90;;
23670;SDS011;12012;51.998;7.614;2023-06-14T00:17:53;5.28;;;3.60;;
23670;SDS011;12012;51.998;7.614;2023-06-14T00:20:19;5.60;;;3.42;;
23670;SDS011;12012;51.998;7.614;2023-06-14T00:22:45;4.03;;;3.17;;
23670;SDS011;12012;51.998;7.614;2023-06-14T00:25:11;3.85;;;3.40;;
23670;SDS011;12012;51.998;7.614;2023-06-14T00:27:37;4.35;;;3.08;;
23670;SDS011;12012;51.998;7.614;2023-06-14T00:30:02;5.13;;;3.00;;
23670;SDS011;12012;51.998;7.614;2023-06-14T00:32:28;5.55;;;3.30;;
23670;SDS011;12012;51.998;7.614;2023-06-14T00:34:54;3.97;;;3.20;;
23670;SDS011;12012;51.998;7.614;2023-06-14T00:37:20;4.03;;;3.08;;
23670;SDS011;12012;51.998;7.614;2023-06-14T00:39:46;4.82;;;3.00;;
23670;SDS011;12012;51.998;7.614;2023-06-14T00:42:22;5.03;;;3.20;;
23670;SDS011;12012;51.998;7.614;2023-06-14T00:44:49;5.22;;;2.90;;
23670;SDS011;12012;51.998;7.614;2023-06-14T00:47:14;4.13;;;3.25;;
23670;SDS011;12012;51.998;7.614;2023-06-14T00:49:40;6.30;;;3.20;;
23670;SDS011;12012;51.998;7.614;2023-06-14T00:52:06;6.53;;;3.25;;
23670;SDS011;12012;51.998;7.614;2023-06-14T00:54:32;3.05;;;2.75;;
23670;SDS011;12012;51.998;7.614;2023-06-14T00:56:57;5.60;;;3.00;;
23670;SDS011;12012;51.998;7.614;2023-06-14T00:59:23;5.45;;;3.10;;
23670;SDS011;12012;51.998;7.614;2023-06-14T01:01:49;3.63;;;3.03;;
23670;SDS011;12012;51.998;7.614;2023-06-14T01:04:15;3.17;;;2.80;;
23670;SDS011;12012;51.998;7.614;2023-06-14T01:09:14;5.63;;;3.22;;
23670;SDS011;12012;51.998;7.614;2023-06-14T01:12:08;4.80;;;2.88;;
23670;SDS011;12012;51.998;7.614;2023-06-14T01:14:39;6.22;;;3.20;;
23670;SDS011;12012;51.998;7.614;2023-06-14T01:17:06;4.25;;;2.90;;
23670;SDS011;12012;51.998;7.614;2023-06-14T01:19:41;3.67;;;2.67;;
23670;SDS011;12012;51.998;7.614;2023-06-14T01:22:07;8.70;;;3.25;;
23670;SDS011;12012;51.998;7.614;2023-06-14T01:24:33;7.00;;;3.30;;
23670;SDS011;12012;51.998;7.614;2023-06-14T01:26:59;3.28;;;2.70;;
23670;SDS011;12012;51.998;7.614;2023-06-14T01:29:27;3.22;;;2.92;;
23670;SDS011;12012;51.998;7.614;2023-06-14T01:31:57;3.75;;;2.92;;
23670;SDS011;12012;51.998;7.614;2023-06-14T01:34:24;3.63;;;2.83;;
23670;SDS011;12012;51.998;7.614;2023-06-14T01:36:50;6.18;;;3.30;;
23670;SDS011;12012;51.998;7.614;2023-06-14T01:39:19;3.67;;;3.08;;
23670;SDS011;12012;51.998;7.614;2023-06-14T01:41:46;5.15;;;3.20;;
23670;SDS011;12012;51.998;7.614;2023-06-14T01:44:14;5.18;;;2.80;;
23670;SDS011;12012;51.998;7.614;2023-06-14T01:46:41;4.72;;;2.80;;
23670;SDS011;12012;51.998;7.614;2023-06-14T01:49:08;4.03;;;2.80;;
23670;SDS011;12012;51.998;7.614;2023-06-14T01:51:33;3.95;;;3.03;;
23670;SDS011;12012;51.998;7.614;2023-06-14T01:54:00;3.53;;;2.90;;
23670;SDS011;12012;51.998;7.614;2023-06-14T01:56:26;5.32;;;2.88;;
23670;SDS011;12012;51.998;7.614;2023-06-14T01:58:52;3.70;;;3.35;;
23670;SDS011;12012;51.998;7.614;2023-06-14T02:01:18;4.45;;;2.97;;
23670;SDS011;12012;51.998;7.614;2023-06-14T02:03:46;3.72;;;3.00;;
23670;SDS011;12012;51.998;7.614;2023-06-14T02:06:13;5.63;;;3.28;;
23670;SDS011;12012;51.998;7.614;2023-06-14T02:08:38;3.83;;;3.10;;
23670;SDS011;12012;51.998;7.614;2023-06-14T02:11:05;3.60;;;2.75;;
23670;SDS011;12012;51.998;7.614;2023-06-14T02:13:30;5.85;;;3.17;;
23670;SDS011;12012;51.998;7.614;2023-06-14T02:15:56;3.95;;;3.10;;
23670;SDS011;12012;51.998;7.614;2023-06-14T02:18:22;6.93;;;3.00;;
23670;SDS011;12012;51.998;7.614;2023-06-14T02:20:48;5.70;;;3.25;;
23670;SDS011;12012;51.998;7.614;2023-06-14T02:23:13;3.88;;;3.28;;
23670;SDS011;12012;51.998;7.614;2023-06-14T02:25:39;6.95;;;3.10;;
23670;SDS011;12012;51.998;7.614;2023-06-14T02:28:05;5.38;;;3.05;;
23670;SDS011;12012;51.998;7.614;2023-06-14T02:30:31;3.58;;;2.80;;
23670;SDS011;12012;51.998;7.614;2023-06-14T02:32:56;5.07;;;3.15;;
23670;SDS011;12012;51.998;7.614;2023-06-14T02:35:22;3.35;;;2.97;;
23670;SDS011;12012;51.998;7.614;2023-06-14T02:37:51;5.43;;;3.40;;
23670;SDS011;12012;51.998;7.614;2023-06-14T02:40:18;4.10;;;2.70;;
23670;SDS011;12012;51.998;7.614;2023-06-14T02:42:44;3.45;;;3.13;;
23670;SDS011;12012;51.998;7.614;2023-06-14T02:45:09;3.75;;;3.00;;
23670;SDS011;12012;51.998;7.614;2023-06-14T02:47:35;5.10;;;2.83;;
23670;SDS011;12012;51.998;7.614;2023-06-14T02:50:01;7.50;;;3.05;;
23670;SDS011;12012;51.998;7.614;2023-06-14T02:52:27;5.35;;;3.40;;
23670;SDS011;12012;51.998;7.614;2023-06-14T02:54:53;7.43;;;3.00;;
23670;SDS011;12012;51.998;7.614;2023-06-14T02:57:19;6.43;;;2.92;;
23670;SDS011;12012;51.998;7.614;2023-06-14T02:59:45;4.45;;;2.83;;
23670;SDS011;12012;51.998;7.614;2023-06-14T03:02:11;5.03;;;3.00;;
23670;SDS011;12012;51.998;7.614;2023-06-14T03:04:36;4.60;;;2.78;;
23670;SDS011;12012;51.998;7.614;2023-06-14T03:07:02;4.80;;;2.97;;
23670;SDS011;12012;51.998;7.614;2023-06-14T03:12:00;3.42;;;2.67;;
23670;SDS011;12012;51.998;7.614;2023-06-14T03:14:27;4.75;;;2.90;;
23670;SDS011;12012;51.998;7.614;2023-06-14T03:16:55;4.15;;;2.78;;
23670;SDS011;12012;51.998;7.614;2023-06-14T03:19:21;3.38;;;2.70;;
23670;SDS011;12012;51.998;7.614;2023-06-14T03:21:47;6.13;;;3.05;;
23670;SDS011;12012;51.998;7.614;2023-06-14T03:24:14;5.28;;;3.22;;
23670;SDS011;12012;51.998;7.614;2023-06-14T03:26:41;4.38;;;2.80;;
23670;SDS011;12012;51.998;7.614;2023-06-14T03:29:07;7.30;;;3.15;;
23670;SDS011;12012;51.998;7.614;2023-06-14T03:31:33;4.88;;;3.15;;
23670;SDS011;12012;51.998;7.614;2023-06-14T03:34:00;4.18;;;3.30;;
23670;SDS011;12012;51.998;7.614;2023-06-14T03:36:26;5.13;;;3.05;;
23670;SDS011;12012;51.998;7.614;2023-06-14T03:38:52;6.30;;;3.17;;
23670;SDS011;12012;51.998;7.614;2023-06-14T03:41:18;5.10;;;3.05;;
23670;SDS011;12012;51.998;7.614;2023-06-14T03:43:44;4.72;;;3.22;;
23670;SDS011;12012;51.998;7.614;2023-06-14T03:46:10;5.43;;;3.13;;
23670;SDS011;12012;51.998;7.614;2023-06-14T03:48:35;3.92;;;3.20;;
23670;SDS011;12012;51.998;7.614;2023-06-14T03:51:01;5.05;;;3.42;;
23670;SDS011;12012;51.998;7.614;2023-06-14T03:53:27;4.57;;;3.08;;
23670;SDS011;12012;51.998;7.614;2023-06-14T03:55:54;4.40;;;2.97;;
23670;SDS011;12012;51.998;7.614;2023-06-14T03:58:20;4.22;;;2.70;;
23670;SDS011;12012;51.998;7.614;2023-06-14T04:00:45;5.30;;;3.15;;
23670;SDS011;12012;51.998;7.614;2023-06-14T04:03:11;4.22;;;2.70;;
23670;SDS011;12012;51.998;7.614;2023-06-14T04:05:38;4.22;;;2.95;;
23670;SDS011;12012;51.998;7.614;2023-06-14T04:08:07;5.25;;;2.80;;
23670;SDS011;12012;51.998;7.614;2023-06-14T04:10:34;5.95;;;3.33;;
23670;SDS011;12012;51.998;7.614;2023-06-14T04:12:59;6.80;;;3.60;;
23670;SDS011;12012;51.998;7.614;2023-06-14T04:15:25;4.03;;;2.63;;
23670;SDS011;12012;51.998;7.614;2023-06-14T04:17:53;4.07;;;3.03;;
23670;SDS011;12012;51.998;7.614;2023-06-14T04:20:22;4.10;;;3.38;;
23670;SDS011;12012;51.998;7.614;2023-06-14T04:22:49;3.78;;;2.70;;
23670;SDS011;12012;51.998;7.614;2023-06-14T04:25:15;3.97;;;3.10;;
23670;SDS011;12012;51.998;7.614;2023-06-14T04:27:42;4.88;;;2.97;;
23670;SDS011;12012;51.998;7.614;2023-06-14T04:30:08;4.85;;;3.00;;
23670;SDS011;12012;51.998;7.614;2023-06-14T04:32:34;5.50;;;3.58;;
23670;SDS011;12012;51.998;7.614;2023-06-14T04:35:03;3.72;;;2.88;;
23670;SDS011;12012;51.998;7.614;2023-06-14T04:37:32;6.95;;;3.45;;
23670;SDS011;12012;51.998;7.614;2023-06-14T04:39:58;4.28;;;3.00;;
23670;SDS011;12012;51.998;7.614;2023-06-14T04:42:24;3.45;;;3.03;;
23670;SDS011;12012;51.998;7.614;2023-06-14T04:44:55;3.80;;;3.20;;
23670;SDS011;12012;51.998;7.614;2023-06-14T04:47:20;6.20;;;3.08;;
23670;SDS011;12012;51.998;7.614;2023-06-14T04:49:46;6.03;;;3.22;;
23670;SDS011;12012;51.998;7.614;2023-06-14T04:52:12;4.75;;;3.25;;
23670;SDS011;12012;51.998;7.614;2023-06-14T04:54:38;5.35;;;2.88;;
23670;SDS011;12012;51.998;7.614;2023-06-14T04:57:07;3.13;;;2.83;;
23670;SDS011;12012;51.998;7.614;2023-06-14T04:59:33;7.70;;;2.97;;
23670;SDS011;12012;51.998;7.614;2023-06-14T05:02:00;9.68;;;3.30;;
23670;SDS011;12012;51.998;7.614;2023-06-14T05:04:26;5.70;;;2.70;;
23670;SDS011;12012;51.998;7.614;2023-06-14T05:06:53;9.18;;;3.42;;
23670;SDS011;12012;51.998;7.614;2023-06-14T05:09:19;7.25;;;3.00;;
23670;SDS011;12012;51.998;7.614;2023-06-14T05:11:46;3.70;;;2.65;;
23670;SDS011;12012;51.998;7.614;2023-06-14T05:14:12;6.13;;;3.10;;
23670;SDS011;12012;51.998;7.614;2023-06-14T05:16:39;7.45;;;3.30;;
23670;SDS011;12012;51.998;7.614;2023-06-14T05:19:05;3.80;;;2.90;;
23670;SDS011;12012;51.998;7.614;2023-06-14T05:21:31;6.15;;;3.20;;
23670;SDS011;12012;51.998;7.614;2023-06-14T05:23:58;5.40;;;3.20;;
23670;SDS011;12012;51.998;7.614;2023-06-14T05:26:24;4.95;;;3.00;;
23670;SDS011;12012;51.998;7.614;2023-06-14T05:28:53;7.38;;;2.80;;
23670;SDS011;12012;51.998;7.614;2023-06-14T05:31:23;6.57;;;3.10;;
23670;SDS011;12012;51.998;7.614;2023-06-14T05:33:52;3.35;;;2.72;;
23670;SDS011;12012;51.998;7.614;2023-06-14T05:36:19;4.20;;;2.97;;
23670;SDS011;12012;51.998;7.614;2023-06-14T05:38:46;4.68;;;2.83;;
23670;SDS011;12012;51.998;7.614;2023-06-14T05:41:12;3.53;;;2.70;;
23670;SDS011;12012;51.998;7.614;2023-06-14T05:43:38;3.90;;;2.75;;
23670;SDS011;12012;51.998;7.614;2023-06-14T05:46:03;4.18;;;2.83;;
23670;SDS011;12012;51.998;7.614;2023-06-14T05:48:32;5.82;;;2.83;;
23670;SDS011;12012;51.998;7.614;2023-06-14T05:50:58;2.95;;;2.60;;
23670;SDS011;12012;51.998;7.614;2023-06-14T05:53:23;5.07;;;2.60;;
23670;SDS011;12012;51.998;7.614;2023-06-14T05:55:49;7.95;;;2.38;;
23670;SDS011;12012;51.998;7.614;2023-06-14T05:58:19;4.40;;;2.40;;
23670;SDS011;12012;51.998;7.614;2023-06-14T06:00:45;6.25;;;2.58;;
23670;SDS011;12012;51.998;7.614;2023-06-14T06:03:11;6.68;;;2.60;;
23670;SDS011;12012;51.998;7.614;2023-06-14T06:05:38;3.67;;;2.25;;
23670;SDS011;12012;51.998;7.614;2023-06-14T06:08:04;5.93;;;2.45;;
23670;SDS011;12012;51.998;7.614;2023-06-14T06:10:30;4.15;;;2.65;;
23670;SDS011;12012;51.998;7.614;2023-06-14T06:12:55;2.97;;;2.28;;
23670;SDS011;12012;51.998;7.614;2023-06-14T06:15:21;5.03;;;2.55;;
23670;SDS011;12012;51.998;7.614;2023-06-14T06:17:46;3.78;;;2.30;;
23670;SDS011;12012;51.998;7.614;2023-06-14T06:20:12;2.92;;;2.30;;
23670;SDS011;12012;51.998;7.614;2023-06-14T06:22:38;3.63;;;2.45;;
23670;SDS011;12012;51.998;7.614;2023-06-14T06:25:04;2.70;;;2.17;;
23670;SDS011;12012;51.998;7.614;2023-06-14T06:27:31;3.03;;;2.35;;
23670;SDS011;12012;51.998;7.614;2023-06-14T06:29:57;3.58;;;2.00;;
23670;SDS011;12012;51.998;7.614;2023-06-14T06:32:22;5.45;;;2.40;;
23670;SDS011;12012;51.998;7.614;2023-06-14T06:34:48;5.72;;;2.25;;
23670;SDS011;12012;51.998;7.614;2023-06-14T06:37:13;3.00;;;2.20;;
23670;SDS011;12012;51.998;7.614;2023-06-14T06:39:39;5.03;;;2.22;;
23670;SDS011;12012;51.998;7.614;2023-06-14T06:42:05;3.42;;;2.33;;
23670;SDS011;12012;51.998;7.614;2023-06-14T06:44:31;5.05;;;2.20;;
23670;SDS011;12012;51.998;7.614;2023-06-14T06:46:57;4.20;;;2.03;;
23670;SDS011;12012;51.998;7.614;2023-06-14T06:49:23;3.75;;;2.38;;
23670;SDS011;12012;51.998;7.614;2023-06-14T06:52:01;3.45;;;2.20;;
23670;SDS011;12012;51.998;7.614;2023-06-14T06:54:28;4.75;;;1.70;;
23670;SDS011;12012;51.998;7.614;2023-06-14T06:56:54;4.68;;;2.00;;
23670;SDS011;12012;51.998;7.614;2023-06-14T06:59:20;7.07;;;1.80;;
23670;SDS011;12012;51.998;7.614;2023-06-14T07:01:46;2.53;;;1.65;;
23670;SDS011;12012;51.998;7.614;2023-06-14T07:04:11;2.28;;;1.80;;
23670;SDS011;12012;51.998;7.614;2023-06-14T07:06:37;2.42;;;1.73;;
23670;SDS011;12012;51.998;7.614;2023-06-14T07:09:03;1.70;;;1.60;;
23670;SDS011;12012;51.998;7.614;2023-06-14T07:11:31;3.38;;;1.67;;
23670;SDS011;12012;51.998;7.614;2023-06-14T07:13:57;2.35;;;1.58;;
23670;SDS011;12012;51.998;7.614;2023-06-14T07:16:22;2.42;;;1.70;;
23670;SDS011;12012;51.998;7.614;2023-06-14T07:18:48;7.70;;;1.65;;
23670;SDS011;12012;51.998;7.614;2023-06-14T07:21:14;2.13;;;1.67;;
23670;SDS011;12012;51.998;7.614;2023-06-14T07:23:39;3.70;;;1.85;;
23670;SDS011;12012;51.998;7.614;2023-06-14T07:26:05;2.80;;;1.90;;
23670;SDS011;12012;51.998;7.614;2023-06-14T07:28:31;2.58;;;1.90;;
23670;SDS011;12012;51.998;7.614;2023-06-14T07:30:56;2.08;;;1.85;;
23670;SDS011;12012;51.998;7.614;2023-06-14T07:33:22;2.47;;;1.70;;
23670;SDS011;12012;51.998;7.614;2023-06-14T07:35:47;2.35;;;2.00;;
23670;SDS011;12012;51.998;7.614;2023-06-14T07:38:14;2.72;;;1.55;;
23670;SDS011;12012;51.998;7.614;2023-06-14T07:40:40;3.08;;;1.85;;
23670;SDS011;12012;51.998;7.614;2023-06-14T07:43:05;4.03;;;2.00;;
23670;SDS011;12012;51.998;7.614;2023-06-14T07:45:31;2.72;;;1.80;;
23670;SDS011;12012;51.998;7.614;2023-06-14T07:47:56;3.85;;;1.90;;
23670;SDS011;12012;51.998;7.614;2023-06-14T07:50:22;3.08;;;1.70;;
23670;SDS011;12012;51.998;7.614;2023-06-14T07:52:48;6.18;;;1.90;;
23670;SDS011;12012;51.998;7.614;2023-06-14T07:55:13;5.07;;;1.80;;
23670;SDS011;12012;51.998;7.614;2023-06-14T07:57:40;3.90;;;2.00;;
23670;SDS011;12012;51.998;7.614;2023-06-14T08:00:06;2.40;;;1.80;;
23670;SDS011;12012;51.998;7.614;2023-06-14T08:02:32;3.40;;;1.90;;
23670;SDS011;12012;51.998;7.614;2023-06-14T08:04:57;3.58;;;1.80;;
23670;SDS011;12012;51.998;7.614;2023-06-14T08:07:23;5.47;;;1.80;;
23670;SDS011;12012;51.998;7.614;2023-06-14T08:09:49;2.15;;;1.83;;
23670;SDS011;12012;51.998;7.614;2023-06-14T08:12:15;3.65;;;1.73;;
23670;SDS011;12012;51.998;7.614;2023-06-14T08:14:41;2.05;;;1.60;;
23670;SDS011;12012;51.998;7.614;2023-06-14T08:17:07;2.10;;;1.55;;
23670;SDS011;12012;51.998;7.614;2023-06-14T08:19:33;5.10;;;2.03;;
23670;SDS011;12012;51.998;7.614;2023-06-14T08:21:58;5.70;;;1.85;;
23670;SDS011;12012;51.998;7.614;2023-06-14T08:24:24;4.65;;;1.80;;
23670;SDS011;12012;51.998;7.614;2023-06-14T08:26:52;6.47;;;1.83;;
23670;SDS011;12012;51.998;7.614;2023-06-14T08:29:18;1.70;;;1.60;;
23670;SDS011;12012;51.998;7.614;2023-06-14T08:31:43;5.70;;;1.83;;
23670;SDS011;12012;51.998;7.614;2023-06-14T08:34:09;2.30;;;1.70;;
23670;SDS011;12012;51.998;7.614;2023-06-14T08:36:35;3.75;;;1.52;;
23670;SDS011;12012;51.998;7.614;2023-06-14T08:39:01;2.75;;;1.40;;
23670;SDS011;12012;51.998;7.614;2023-06-14T08:41:27;3.40;;;1.50;;
23670;SDS011;12012;51.998;7.614;2023-06-14T08:43:54;1.60;;;1.50;;
23670;SDS011;12012;51.998;7.614;2023-06-14T08:46:20;2.03;;;1.35;;
23670;SDS011;12012;51.998;7.614;2023-06-14T08:48:47;5.35;;;1.42;;
23670;SDS011;12012;51.998;7.614;2023-06-14T08:51:15;5.38;;;1.42;;
23670;SDS011;12012;51.998;7.614;2023-06-14T08:53:44;2.70;;;1.50;;
23670;SDS011;12012;51.998;7.614;2023-06-14T08:56:11;2.60;;;1.55;;
23670;SDS011;12012;51.998;7.614;2023-06-14T08:58:39;4.15;;;1.50;;
23670;SDS011;12012;51.998;7.614;2023-06-14T09:01:10;4.25;;;1.73;;
23670;SDS011;12012;51.998;7.614;2023-06-14T09:03:40;2.28;;;1.30;;
23670;SDS011;12012;51.998;7.614;2023-06-14T09:06:06;4.68;;;1.50;;
23670;SDS011;12012;51.998;7.614;2023-06-14T09:08:34;2.83;;;1.20;;
23670;SDS011;12012;51.998;7.614;2023-06-14T09:11:01;1.73;;;1.20;;
23670;SDS011;12012;51.998;7.614;2023-06-14T09:13:27;3.83;;;1.85;;
23670;SDS011;12012;51.998;7.614;2023-06-14T09:15:52;1.70;;;1.50;;
23670;SDS011;12012;51.998;7.614;2023-06-14T09:18:18;3.95;;;1.35;;
23670;SDS011;12012;51.998;7.614;2023-06-14T09:20:46;1.55;;;1.45;;
23670;SDS011;12012;51.998;7.614;2023-06-14T09:23:13;3.95;;;1.50;;
23670;SDS011;12012;51.998;7.614;2023-06-14T09:25:45;1.20;;;1.10;;
23670;SDS011;12012;51.998;7.614;2023-06-14T09:28:11;7.30;;;1.45;;
23670;SDS011;12012;51.998;7.614;2023-06-14T09:30:37;2.88;;;1.20;;
23670;SDS011;12012;51.998;7.614;2023-06-14T09:33:03;3.28;;;1.30;;
23670;SDS011;12012;51.998;7.614;2023-06-14T09:35:30;1.80;;;1.50;;
23670;SDS011;12012;51.998;7.614;2023-06-14T09:37:56;1.60;;;1.33;;
23670;SDS011;12012;51.998;7.614;2023-06-14T09:40:22;2.20;;;1.40;;
23670;SDS011;12012;51.998;7.614;2023-06-14T09:42:48;1.35;;;1.25;;
23670;SDS011;12012;51.998;7.614;2023-06-14T09:45:15;2.05;;;1.42;;
23670;SDS011;12012;51.998;7.614;2023-06-14T09:47:46;2.63;;;1.40;;
23670;SDS011;12012;51.998;7.614;2023-06-14T09:50:14;3.47;;;1.20;;
23670;SDS011;12012;51.998;7.614;2023-06-14T09:52:40;3.78;;;1.30;;
23670;SDS011;12012;51.998;7.614;2023-06-14T09:55:11;3.67;;;1.25;;
23670;SDS011;12012;51.998;7.614;2023-06-14T09:57:38;1.58;;;1.10;;
23670;SDS011;12012;51.998;7.614;2023-06-14T10:00:10;2.45;;;1.30;;
23670;SDS011;12012;51.998;7.614;2023-06-14T10:02:38;1.55;;;1.27;;
23670;SDS011;12012;51.998;7.614;2023-06-14T10:05:11;5.65;;;1.17;;
23670;SDS011;12012;51.998;7.614;2023-06-14T10:07:42;1.42;;;0.95;;
23670;SDS011;12012;51.998;7.614;2023-06-14T10:10:13;1.60;;;0.98;;
23670;SDS011;12012;51.998;7.614;2023-06-14T10:12:39;1.50;;;1.00;;
23670;SDS011;12012;51.998;7.614;2023-06-14T10:15:07;2.50;;;1.10;;
23670;SDS011;12012;51.998;7.614;2023-06-14T10:17:56;1.65;;;0.98;;
23670;SDS011;12012;51.998;7.614;2023-06-14T10:20:34;2.00;;;0.90;;
23670;SDS011;12012;51.998;7.614;2023-06-14T10:23:08;3.33;;;1.02;;
23670;SDS011;12012;51.998;7.614;2023-06-14T10:25:38;1.65;;;1.00;;
23670;SDS011;12012;51.998;7.614;2023-06-14T10:28:17;2.88;;;1.25;;
23670;SDS011;12012;51.998;7.614;2023-06-14T10:31:05;1.67;;;1.20;;
23670;SDS011;12012;51.998;7.614;2023-06-14T10:33:36;2.17;;;1.23;;
23670;SDS011;12012;51.998;7.614;2023-06-14T10:36:24;4.45;;;1.10;;
23670;SDS011;12012;51.998;7.614;2023-06-14T10:39:10;5.97;;;1.30;;
23670;SDS011;12012;51.998;7.614;2023-06-14T10:41:40;4.32;;;1.20;;
23670;SDS011;12012;51.998;7.614;2023-06-14T10:44:52;4.93;;;1.25;;
23670;SDS011;12012;51.998;7.614;2023-06-14T10:46:55;6.60;;;1.25;;
23670;SDS011;12012;51.998;7.614;2023-06-14T10:49:42;7.93;;;1.42;;
23670;SDS011;12012;51.998;7.614;2023-06-14T10:52:15;1.48;;;1.10;;
23670;SDS011;12012;51.998;7.614;2023-06-14T10:57:54;2.63;;;1.20;;
23670;SDS011;12012;51.998;7.614;2023-06-14T11:00:24;2.83;;;1.30;;
23670;SDS011;12012;51.998;7.614;2023-06-14T11:10:59;1.15;;;1.05;;
23670;SDS011;12012;51.998;7.614;2023-06-14T11:15:56;2.60;;;1.08;;
23670;SDS011;12012;51.998;7.614;2023-06-14T11:18:22;2.67;;;1.00;;
23670;SDS011;12012;51.998;7.614;2023-06-14T11:20:52;1.40;;;1.10;;
23670;SDS011;12012;51.998;7.614;2023-06-14T11:23:18;1.75;;;0.88;;
23670;SDS011;12012;51.998;7.614;2023-06-14T11:25:49;2.10;;;1.10;;
23670;SDS011;12012;51.998;7.614;2023-06-14T11:28:18;2.50;;;1.00;;
23670;SDS011;12012;51.998;7.614;2023-06-14T11:30:47;3.35;;;1.00;;
23670;SDS011;12012;51.998;7.614;2023-06-14T11:33:19;1.08;;;1.00;;
23670;SDS011;12012;51.998;7.614;2023-06-14T11:35:45;3.67;;;1.20;;
23670;SDS011;12012;51.998;7.614;2023-06-14T11:38:10;5.53;;;1.10;;
23670;SDS011;12012;51.998;7.614;2023-06-14T11:40:37;1.50;;;1.10;;
23670;SDS011;12012;51.998;7.614;2023-06-14T11:43:03;4.22;;;1.25;;
23670;SDS011;12012;51.998;7.614;2023-06-14T11:45:29;1.35;;;1.13;;
23670;SDS011;12012;51.998;7.614;2023-06-14T11:47:56;4.80;;;1.20;;
23670;SDS011;12012;51.998;7.614;2023-06-14T11:50:22;1.80;;;1.30;;
23670;SDS011;12012;51.998;7.614;2023-06-14T11:52:55;4.90;;;1.40;;
23670;SDS011;12012;51.998;7.614;2023-06-14T11:55:21;3.53;;;1.15;;
23670;SDS011;12012;51.998;7.614;2023-06-14T11:57:47;1.50;;;1.38;;
23670;SDS011;12012;51.998;7.614;2023-06-14T12:00:13;2.45;;;1.13;;
23670;SDS011;12012;51.998;7.614;2023-06-14T12:02:40;4.55;;;1.45;;
23670;SDS011;12012;51.998;7.614;2023-06-14T12:05:07;3.72;;;1.20;;
23670;SDS011;12012;51.998;7.614;2023-06-14T12:07:35;1.67;;;1.20;;
23670;SDS011;12012;51.998;7.614;2023-06-14T12:10:07;1.15;;;1.00;;
23670;SDS011;12012;51.998;7.614;2023-06-14T12:12:39;3.03;;;1.30;;
23670;SDS011;12012;51.998;7.614;2023-06-14T12:15:05;1.15;;;1.08;;
23670;SDS011;12012;51.998;7.614;2023-06-14T12:17:33;2.25;;;1.20;;
23670;SDS011;12012;51.998;7.614;2023-06-14T12:20:07;2.28;;;1.20;;
23670;SDS011;12012;51.998;7.614;2023-06-14T12:22:38;4.50;;;1.30;;
23670;SDS011;12012;51.998;7.614;2023-06-14T12:25:11;1.27;;;1.10;;
23670;SDS011;12012;51.998;7.614;2023-06-14T12:27:51;1.92;;;1.00;;
23670;SDS011;12012;51.998;7.614;2023-06-14T12:30:17;2.90;;;1.05;;
23670;SDS011;12012;51.998;7.614;2023-06-14T12:32:42;4.20;;;1.73;;
23670;SDS011;12012;51.998;7.614;2023-06-14T12:35:09;2.25;;;1.30;;
23670;SDS011;12012;51.998;7.614;2023-06-14T12:37:34;4.65;;;1.40;;
23670;SDS011;12012;51.998;7.614;2023-06-14T12:40:00;2.25;;;1.20;;
23670;SDS011;12012;51.998;7.614;2023-06-14T12:42:26;1.83;;;1.10;;
23670;SDS011;12012;51.998;7.614;2023-06-14T12:44:52;1.42;;;1.02;;
23670;SDS011;12012;51.998;7.614;2023-06-14T12:47:17;1.63;;;1.30;;
23670;SDS011;12012;51.998;7.614;2023-06-14T12:49:43;1.55;;;1.00;;
23670;SDS011;12012;51.998;7.614;2023-06-14T12:52:08;3.20;;;1.23;;
23670;SDS011;12012;51.998;7.614;2023-06-14T12:54:34;1.58;;;1.30;;
23670;SDS011;12012;51.998;7.614;2023-06-14T12:57:00;1.85;;;1.20;;
23670;SDS011;12012;51.998;7.614;2023-06-14T12:59:25;2.70;;;1.10;;
23670;SDS011;12012;51.998;7.614;2023-06-14T13:01:57;1.35;;;1.20;;
23670;SDS011;12012;51.998;7.614;2023-06-14T13:04:24;1.55;;;1.42;;
23670;SDS011;12012;51.998;7.614;2023-06-14T13:06:49;1.85;;;1.27;;
23670;SDS011;12012;51.998;7.614;2023-06-14T13:09:15;4.53;;;1.00;;
23670;SDS011;12012;51.998;7.614;2023-06-14T13:11:40;1.23;;;1.13;;
23670;SDS011;12012;51.998;7.614;2023-06-14T13:14:06;4.57;;;1.40;;
23670;SDS011;12012;51.998;7.614;2023-06-14T13:16:31;2.25;;;1.30;;
23670;SDS011;12012;51.998;7.614;2023-06-14T13:18:57;3.38;;;1.20;;
23670;SDS011;12012;51.998;7.614;2023-06-14T13:21:23;1.60;;;1.15;;
23670;SDS011;12012;51.998;7.614;2023-06-14T13:23:48;1.10;;;1.00;;
23670;SDS011;12012;51.998;7.614;2023-06-14T13:26:14;1.73;;;1.00;;
23670;SDS011;12012;51.998;7.614;2023-06-14T13:28:40;2.75;;;1.25;;
23670;SDS011;12012;51.998;7.614;2023-06-14T13:31:05;2.55;;;1.23;;
23670;SDS011;12012;51.998;7.614;2023-06-14T13:33:31;2.13;;;1.30;;
23670;SDS011;12012;51.998;7.614;2023-06-14T13:35:57;2.05;;;1.20;;
23670;SDS011;12012;51.998;7.614;2023-06-14T13:38:22;1.48;;;1.38;;
23670;SDS011;12012;51.998;7.614;2023-06-14T13:40:48;1.33;;;1.20;;
23670;SDS011;12012;51.998;7.614;2023-06-14T13:43:13;4.03;;;1.30;;
23670;SDS011;12012;51.998;7.614;2023-06-14T13:45:39;1.60;;;1.30;;
23670;SDS011;12012;51.998;7.614;2023-06-14T13:48:04;2.85;;;1.30;;
23670;SDS011;12012;51.998;7.614;2023-06-14T13:50:30;1.20;;;1.10;;
23670;SDS011;12012;51.998;7.614;2023-06-14T13:52:56;2.22;;;1.40;;
23670;SDS011;12012;51.998;7.614;2023-06-14T13:55:21;1.80;;;1.10;;
23670;SDS011;12012;51.998;7.614;2023-06-14T13:57:47;1.58;;;1.25;;
23670;SDS011;12012;51.998;7.614;2023-06-14T14:00:13;1.30;;;1.20;;
23670;SDS011;12012;51.998;7.614;2023-06-14T14:02:39;2.05;;;1.33;;
23670;SDS011;12012;51.998;7.614;2023-06-14T14:05:08;1.33;;;1.20;;
23670;SDS011;12012;51.998;7.614;2023-06-14T14:07:34;1.00;;;1.00;;
23670;SDS011;12012;51.998;7.614;2023-06-14T14:10:01;3.80;;;1.38;;
23670;SDS011;12012;51.998;7.614;2023-06-14T14:12:27;3.10;;;1.23;;
23670;SDS011;12012;51.998;7.614;2023-06-14T14:14:53;1.70;;;1.20;;
23670;SDS011;12012;51.998;7.614;2023-06-14T14:17:19;2.45;;;1.30;;
23670;SDS011;12012;51.998;7.614;2023-06-14T14:19:45;2.67;;;1.55;;
23670;SDS011;12012;51.998;7.614;2023-06-14T14:22:10;3.13;;;1.48;;
23670;SDS011;12012;51.998;7.614;2023-06-14T14:24:36;1.77;;;1.48;;
23670;SDS011;12012;51.998;7.614;2023-06-14T14:27:01;4.50;;;1.30;;
23670;SDS011;12012;51.998;7.614;2023-06-14T14:29:27;1.80;;;1.00;;
23670;SDS011;12012;51.998;7.614;2023-06-14T14:31:56;3.00;;;1.30;;
23670;SDS011;12012;51.998;7.614;2023-06-14T14:34:22;1.50;;;1.40;;
23670;SDS011;12012;51.998;7.614;2023-06-14T14:36:49;1.60;;;1.30;;
23670;SDS011;12012;51.998;7.614;2023-06-14T14:39:14;1.65;;;1.20;;
23670;SDS011;12012;51.998;7.614;2023-06-14T14:41:40;1.30;;;1.20;;
23670;SDS011;12012;51.998;7.614;2023-06-14T14:44:06;1.35;;;1.20;;
23670;SDS011;12012;51.998;7.614;2023-06-14T14:46:31;1.80;;;1.42;;
23670;SDS011;12012;51.998;7.614;2023-06-14T14:48:58;1.85;;;1.40;;
23670;SDS011;12012;51.998;7.614;2023-06-14T14:51:25;4.85;;;1.50;;
23670;SDS011;12012;51.998;7.614;2023-06-14T14:53:50;3.33;;;1.38;;
23670;SDS011;12012;51.998;7.614;2023-06-14T14:56:16;2.08;;;1.45;;
23670;SDS011;12012;51.998;7.614;2023-06-14T14:58:42;2.05;;;1.30;;
23670;SDS011;12012;51.998;7.614;2023-06-14T15:01:08;3.78;;;1.50;;
23670;SDS011;12012;51.998;7.614;2023-06-14T15:03:33;5.93;;;1.70;;
23670;SDS011;12012;51.998;7.614;2023-06-14T15:05:59;1.30;;;1.20;;